Time;durP1;ratioP1;P1;durP2;ratioP2;P2;SDS_P1;SDS_P2;PMS_P1;PMS_P2;Temp;Humidity;BMP_temperature;BMP_pressure;BME280_temperature;BME280_humidity;BME280_pressure;Samples;Min_cycle;Max_cycle;Signal;HPM_P1;HPM_P2
2023/05/07 00:01:49;;;;;;;20.25;15.02;;;13.40;99.90;;;;;;4876099;28;97118;-35
2023/05/07 00:04:14;;;;;;;24.13;17.50;;;13.40;99.90;;;;;;4879106;28;95181;-32
2023/05/07 00:06:40;;;;;;;21.80;15.52;;;13.40;99.90;;;;;;4878456;28;93200;-34
2023/05/07 00:09:06;;;;;;;26.88;15.90;;;13.30;99.90;;;;;;4877639;28;94278;-31
2023/05/07 00:11:33;;;;;;;26.08;15.50;;;13.30;99.90;;;;;;4873608;28;95552;-33
2023/05/07 00:13:59;;;;;;;27.77;15.05;;;13.30;99.90;;;;;;4878720;28;95233;-30
2023/05/07 00:16:25;;;;;;;21.77;16.42;;;13.30;99.90;;;;;;4873697;28;93491;-33
2023/05/07 00:18:51;;;;;;;18.73;13.63;;;13.20;99.90;;;;;;4878202;28;91831;-31
2023/05/07 00:21:16;;;;;;;19.65;14.40;;;13.20;99.90;;;;;;4876617;28;94500;-34
2023/05/07 00:23:42;;;;;;;23.08;16.23;;;13.10;99.90;;;;;;4878754;28;94629;-33
2023/05/07 00:26:07;;;;;;;20.33;14.88;;;13.10;99.90;;;;;;4863263;28;94406;-32
2023/05/07 00:28:33;;;;;;;24.95;15.38;;;13.10;99.90;;;;;;4874063;28;95173;-32
2023/05/07 00:30:59;;;;;;;23.58;16.73;;;13.00;99.90;;;;;;4875928;28;94841;-33
2023/05/07 00:33:26;;;;;;;17.13;13.57;;;13.00;99.90;;;;;;4878026;28;94868;-34
2023/05/07 00:35:52;;;;;;;27.90;17.53;;;13.00;99.90;;;;;;4862118;28;94651;-35
2023/05/07 00:38:17;;;;;;;23.67;17.02;;;13.00;99.90;;;;;;4859407;28;92227;-34
2023/05/07 00:40:43;;;;;;;21.75;16.15;;;12.90;99.90;;;;;;4860290;28;94715;-34
2023/05/07 00:43:08;;;;;;;22.00;18.38;;;12.90;99.90;;;;;;4859826;28;92631;-33
2023/05/07 00:45:34;;;;;;;18.55;14.82;;;12.80;99.90;;;;;;4864253;28;94497;-35
2023/05/07 00:48:02;;;;;;;22.50;15.82;;;12.80;99.90;;;;;;4867694;28;94232;-34
2023/05/07 00:50:28;;;;;;;24.77;13.87;;;12.80;99.90;;;;;;4858804;28;97415;-34
2023/05/07 00:52:54;;;;;;;23.02;18.10;;;12.70;99.90;;;;;;4871496;28;95993;-33
2023/05/07 00:55:21;;;;;;;22.58;17.70;;;12.70;99.90;;;;;;4873106;28;92539;-33
2023/05/07 00:57:47;;;;;;;22.88;18.10;;;12.60;99.90;;;;;;4871919;28;92726;-33
2023/05/07 01:00:13;;;;;;;19.48;16.33;;;12.60;99.90;;;;;;4859591;28;95342;-33
2023/05/07 01:02:39;;;;;;;25.88;16.95;;;12.60;99.90;;;;;;4861050;28;94312;-34
2023/05/07 01:05:07;;;;;;;19.35;13.73;;;12.50;99.90;;;;;;4860407;28;92807;-33
2023/05/07 01:07:34;;;;;;;18.67;14.20;;;12.50;99.90;;;;;;4859790;28;92615;-33
2023/05/07 01:10:01;;;;;;;20.92;16.10;;;12.40;99.90;;;;;;4871901;28;94542;-35
2023/05/07 01:12:28;;;;;;;22.52;17.13;;;12.40;99.90;;;;;;4859699;28;93162;-33
2023/05/07 01:14:53;;;;;;;26.38;17.95;;;12.40;99.90;;;;;;4871834;28;93632;-31
2023/05/07 01:17:19;;;;;;;25.65;18.90;;;12.30;99.90;;;;;;4874574;28;93542;-35
2023/05/07 01:19:45;;;;;;;21.95;15.68;;;12.20;99.90;;;;;;4872516;28;95969;-32
2023/05/07 01:22:12;;;;;;;22.50;14.82;;;12.20;99.90;;;;;;4874326;28;94534;-32
2023/05/07 01:24:37;;;;;;;26.27;18.23;;;12.20;99.90;;;;;;4873268;28;94451;-31
2023/05/07 01:27:04;;;;;;;22.60;15.07;;;12.20;99.90;;;;;;4872414;28;92645;-34
2023/05/07 01:29:29;;;;;;;22.95;15.70;;;12.20;99.90;;;;;;4864690;28;94622;-31
2023/05/07 01:32:00;;;;;;;25.20;19.83;;;12.10;99.90;;;;;;4871858;28;94525;-35
2023/05/07 01:34:30;;;;;;;29.50;17.05;;;12.10;99.90;;;;;;4865828;28;94151;-32
2023/05/07 01:36:57;;;;;;;23.17;16.50;;;12.00;99.90;;;;;;4871326;28;93778;-34
2023/05/07 01:39:28;;;;;;;26.53;19.77;;;12.00;99.90;;;;;;4863479;28;93819;-35
2023/05/07 01:41:59;;;;;;;28.98;18.63;;;11.90;99.90;;;;;;4866252;28;95903;-31
2023/05/07 01:44:25;;;;;;;23.55;18.45;;;11.90;99.90;;;;;;4869992;28;94891;-33
2023/05/07 01:46:52;;;;;;;24.42;18.27;;;11.80;99.90;;;;;;4873576;28;93529;-34
2023/05/07 01:49:18;;;;;;;22.92;16.88;;;11.80;99.90;;;;;;4874034;28;93913;-36
2023/05/07 01:51:44;;;;;;;25.88;19.50;;;11.70;99.90;;;;;;4871729;28;94249;-33
2023/05/07 01:54:10;;;;;;;25.48;18.88;;;11.70;99.90;;;;;;4870370;28;92206;-31
2023/05/07 01:56:35;;;;;;;33.22;22.20;;;11.70;99.90;;;;;;4871647;28;92670;-31
2023/05/07 01:59:01;;;;;;;26.50;19.95;;;11.70;99.90;;;;;;4861860;28;94212;-31
2023/05/07 02:01:27;;;;;;;28.27;18.20;;;11.70;99.90;;;;;;4862500;28;94693;-32
2023/05/07 02:03:53;;;;;;;28.45;20.10;;;11.70;99.90;;;;;;4862162;28;93710;-30
2023/05/07 02:06:19;;;;;;;30.85;21.95;;;11.70;99.90;;;;;;4862117;28;94090;-33
2023/05/07 02:08:46;;;;;;;28.15;21.25;;;11.60;99.90;;;;;;4860709;28;94849;-34
2023/05/07 02:11:11;;;;;;;32.88;20.40;;;11.60;99.90;;;;;;4862377;28;94070;-33
2023/05/07 02:13:37;;;;;;;25.52;19.67;;;11.60;99.90;;;;;;4862651;28;93178;-32
2023/05/07 02:16:03;;;;;;;33.90;21.75;;;11.60;99.90;;;;;;4862914;28;94672;-31
2023/05/07 02:18:29;;;;;;;35.00;23.38;;;11.60;99.90;;;;;;4878364;28;94638;-32
2023/05/07 02:20:54;;;;;;;36.72;23.02;;;11.50;99.90;;;;;;4879716;28;93707;-35
2023/05/07 02:23:20;;;;;;;41.53;25.33;;;11.50;99.90;;;;;;4862214;28;94609;-36
2023/05/07 02:25:45;;;;;;;36.65;25.45;;;11.40;99.90;;;;;;4862858;28;92275;-33
2023/05/07 02:28:12;;;;;;;35.33;25.35;;;11.40;99.90;;;;;;4879876;28;95991;-31
2023/05/07 02:30:38;;;;;;;34.40;22.05;;;11.40;99.90;;;;;;4878911;28;95726;-31
2023/05/07 02:33:03;;;;;;;34.88;22.52;;;11.50;99.90;;;;;;4880519;28;93097;-31
2023/05/07 02:35:29;;;;;;;38.65;24.60;;;11.40;99.90;;;;;;4880236;28;94539;-32
2023/05/07 02:37:55;;;;;;;35.65;24.35;;;11.40;99.90;;;;;;4879624;28;95132;-36
2023/05/07 02:40:20;;;;;;;39.60;25.73;;;11.40;99.90;;;;;;4879803;28;94892;-34
2023/05/07 02:42:46;;;;;;;41.63;25.17;;;11.40;99.90;;;;;;4879772;28;92588;-33
2023/05/07 02:45:11;;;;;;;40.58;27.30;;;11.40;99.90;;;;;;4879426;28;93210;-32
2023/05/07 02:47:37;;;;;;;37.05;25.58;;;11.30;99.90;;;;;;4879794;28;95252;-32
2023/05/07 02:50:03;;;;;;;38.42;28.17;;;11.30;99.90;;;;;;4879985;28;94648;-35
2023/05/07 02:52:29;;;;;;;38.22;26.60;;;11.20;99.90;;;;;;4878544;28;94325;-33
2023/05/07 02:54:54;;;;;;;43.75;27.63;;;11.30;99.90;;;;;;4878672;28;93207;-33
2023/05/07 02:57:20;;;;;;;43.15;29.35;;;11.40;99.90;;;;;;4866716;28;94695;-34
2023/05/07 02:59:46;;;;;;;42.50;29.35;;;11.30;99.90;;;;;;4869970;28;94571;-31
2023/05/07 03:02:11;;;;;;;51.97;33.03;;;11.30;99.90;;;;;;4874083;28;93922;-32
2023/05/07 03:04:37;;;;;;;34.03;24.42;;;11.30;99.90;;;;;;4879631;28;92644;-34
2023/05/07 03:07:03;;;;;;;39.45;27.05;;;11.30;99.90;;;;;;4879843;28;94267;-31
2023/05/07 03:09:28;;;;;;;48.20;26.75;;;11.30;99.90;;;;;;4879128;28;94572;-32
2023/05/07 03:11:54;;;;;;;42.72;27.42;;;11.30;99.90;;;;;;4879185;28;93427;-32
2023/05/07 03:14:20;;;;;;;37.55;24.75;;;11.30;99.90;;;;;;4879519;28;93707;-31
2023/05/07 03:16:45;;;;;;;42.53;29.77;;;11.30;99.90;;;;;;4878729;28;95657;-33
2023/05/07 03:19:11;;;;;;;34.05;23.83;;;11.30;99.90;;;;;;4879347;28;94650;-30
2023/05/07 03:21:37;;;;;;;34.47;23.88;;;11.30;99.90;;;;;;4879718;28;94346;-33
2023/05/07 03:24:02;;;;;;;39.60;26.45;;;11.30;99.90;;;;;;4879361;28;92458;-35
2023/05/07 03:26:28;;;;;;;39.63;25.23;;;11.30;99.90;;;;;;4879470;28;94578;-34
2023/05/07 03:28:55;;;;;;;39.42;24.90;;;11.20;99.90;;;;;;4878582;28;93950;-36
2023/05/07 03:31:20;;;;;;;44.30;26.58;;;11.30;99.90;;;;;;4879397;28;93105;-32
2023/05/07 03:33:51;;;;;;;36.40;26.02;;;11.20;99.90;;;;;;4879649;28;93647;-32
2023/05/07 03:36:17;;;;;;;47.78;27.35;;;11.20;99.90;;;;;;4878895;28;95016;-33
2023/05/07 03:38:43;;;;;;;31.67;23.90;;;11.20;99.90;;;;;;4879133;28;93295;-35
2023/05/07 03:41:09;;;;;;;39.72;22.90;;;11.20;99.90;;;;;;4878628;28;95525;-32
2023/05/07 03:43:34;;;;;;;41.88;27.60;;;11.20;99.90;;;;;;4878686;28;92284;-33
2023/05/07 03:46:00;;;;;;;36.22;25.55;;;11.10;99.90;;;;;;4879535;28;94854;-35
2023/05/07 03:48:26;;;;;;;33.08;20.08;;;11.10;99.90;;;;;;4879074;28;94737;-35
2023/05/07 03:50:51;;;;;;;33.40;23.55;;;11.10;99.90;;;;;;4879427;28;94343;-32
2023/05/07 03:53:17;;;;;;;30.92;20.45;;;11.10;99.90;;;;;;4878863;28;93047;-33
2023/05/07 03:55:42;;;;;;;37.67;24.70;;;11.10;99.90;;;;;;4878923;28;94582;-33
2023/05/07 03:58:08;;;;;;;28.35;22.73;;;11.10;99.90;;;;;;4878951;28;95035;-34
2023/05/07 04:00:37;;;;;;;35.90;26.98;;;11.10;99.90;;;;;;4878733;28;94772;-33
2023/05/07 04:03:04;;;;;;;41.22;24.48;;;11.00;99.90;;;;;;4878252;28;93057;-32
2023/05/07 04:05:30;;;;;;;34.60;22.50;;;11.10;99.90;;;;;;4877513;28;95586;-34
2023/05/07 04:07:57;;;;;;;29.15;23.10;;;11.10;99.90;;;;;;4878823;28;96619;-33
2023/05/07 04:10:23;;;;;;;31.23;23.42;;;11.10;99.90;;;;;;4896579;23;93427;-34
2023/05/07 04:12:48;;;;;;;29.60;20.77;;;11.00;99.90;;;;;;4860090;28;93113;-32
2023/05/07 04:15:15;;;;;;;27.45;19.92;;;11.00;99.90;;;;;;4860413;28;94265;-32
2023/05/07 04:17:41;;;;;;;35.13;24.85;;;11.10;99.90;;;;;;4858733;28;95373;-34
2023/05/07 04:20:10;;;;;;;33.35;23.90;;;11.00;99.90;;;;;;4852356;28;92780;-34
2023/05/07 04:22:36;;;;;;;27.23;20.20;;;11.00;99.90;;;;;;4842237;28;92901;-34
2023/05/07 04:25:02;;;;;;;29.17;20.75;;;11.10;99.90;;;;;;4841533;28;94842;-30
2023/05/07 04:27:27;;;;;;;33.35;23.48;;;11.10;99.90;;;;;;4854988;28;94487;-32
2023/05/07 04:29:55;;;;;;;28.08;21.80;;;11.00;99.90;;;;;;4859356;28;94107;-31
2023/05/07 04:32:21;;;;;;;25.55;19.77;;;11.00;99.90;;;;;;4859297;28;93421;-31
2023/05/07 04:34:47;;;;;;;28.48;19.92;;;11.10;99.90;;;;;;4859668;28;95314;-30
2023/05/07 04:37:13;;;;;;;26.50;18.88;;;11.00;99.90;;;;;;4859345;28;94700;-31
2023/05/07 04:39:38;;;;;;;32.70;22.67;;;11.00;99.90;;;;;;4859134;28;93607;-30
2023/05/07 04:42:05;;;;;;;32.85;21.20;;;11.00;99.90;;;;;;4847115;28;94517;-32
2023/05/07 04:44:31;;;;;;;31.23;22.13;;;11.00;99.90;;;;;;4849849;28;94783;-35
2023/05/07 04:46:57;;;;;;;25.10;18.60;;;11.00;99.90;;;;;;4856619;28;94086;-32
2023/05/07 04:49:23;;;;;;;32.83;20.38;;;11.00;99.90;;;;;;4859536;28;94128;-31
2023/05/07 04:51:48;;;;;;;30.48;22.20;;;11.00;99.90;;;;;;4858724;28;93738;-35
2023/05/07 04:54:14;;;;;;;32.40;21.45;;;11.00;99.90;;;;;;4858623;28;96372;-31
2023/05/07 04:56:39;;;;;;;27.50;20.02;;;11.00;99.90;;;;;;4858599;28;95491;-32
2023/05/07 04:59:05;;;;;;;28.67;19.95;;;11.00;99.90;;;;;;4859508;28;94210;-35
2023/05/07 05:01:31;;;;;;;32.72;22.10;;;11.00;99.90;;;;;;4858393;28;93328;-35
2023/05/07 05:03:56;;;;;;;32.72;21.90;;;11.00;99.90;;;;;;4857127;28;94705;-32
2023/05/07 05:06:22;;;;;;;28.50;19.65;;;11.00;99.90;;;;;;4857965;28;95497;-33
2023/05/07 05:08:48;;;;;;;30.95;19.35;;;11.00;99.90;;;;;;4856476;28;94267;-34
2023/05/07 05:11:13;;;;;;;34.17;21.05;;;11.00;99.90;;;;;;4859340;28;92748;-30
2023/05/07 05:13:39;;;;;;;29.95;19.95;;;11.00;99.90;;;;;;4857334;28;94728;-34
2023/05/07 05:16:05;;;;;;;30.25;21.83;;;11.00;99.90;;;;;;4860390;28;94985;-32
2023/05/07 05:18:31;;;;;;;31.20;19.45;;;11.10;99.90;;;;;;4852266;28;94683;-34
2023/05/07 05:20:56;;;;;;;30.48;21.50;;;11.00;99.90;;;;;;4860981;28;94358;-36
2023/05/07 05:23:22;;;;;;;27.42;22.08;;;11.00;99.90;;;;;;4843751;28;94284;-32
2023/05/07 05:25:48;;;;;;;30.17;19.83;;;11.00;99.90;;;;;;4855319;28;94886;-32
2023/05/07 05:28:13;;;;;;;28.98;22.08;;;11.10;99.90;;;;;;4861848;28;92991;-33
2023/05/07 05:30:39;;;;;;;36.55;21.60;;;11.10;99.90;;;;;;4861824;28;94203;-31
2023/05/07 05:33:05;;;;;;;25.48;19.67;;;11.10;99.90;;;;;;4862532;28;94313;-33
2023/05/07 05:35:31;;;;;;;29.00;20.67;;;11.10;99.90;;;;;;4861491;28;94439;-32
2023/05/07 05:37:57;;;;;;;29.02;23.17;;;11.20;99.90;;;;;;4862053;28;92835;-31
2023/05/07 05:40:22;;;;;;;26.58;19.77;;;11.20;99.90;;;;;;4860609;28;94363;-31
2023/05/07 05:42:48;;;;;;;31.88;21.88;;;11.20;99.90;;;;;;4861754;28;95604;-31
2023/05/07 05:45:14;;;;;;;31.10;21.70;;;11.20;99.90;;;;;;4861035;28;95817;-31
2023/05/07 05:47:39;;;;;;;31.40;21.98;;;11.20;99.90;;;;;;4862050;28;92965;-34
2023/05/07 05:50:06;;;;;;;35.97;23.70;;;11.20;99.90;;;;;;4860542;28;93788;-33
2023/05/07 05:52:32;;;;;;;29.98;20.98;;;11.30;99.90;;;;;;4861658;28;95048;-33
2023/05/07 05:54:57;;;;;;;33.65;21.30;;;11.30;99.90;;;;;;4861275;28;94710;-32
2023/05/07 05:57:23;;;;;;;24.52;18.10;;;11.30;99.90;;;;;;4858515;28;93027;-32
2023/05/07 05:59:48;;;;;;;30.33;22.50;;;11.30;99.90;;;;;;4844922;28;92185;-34
2023/05/07 06:02:14;;;;;;;34.13;25.13;;;11.20;99.90;;;;;;4845137;28;94796;-31
2023/05/07 06:04:40;;;;;;;33.70;20.65;;;11.20;99.90;;;;;;4853817;28;94163;-32
2023/05/07 06:07:06;;;;;;;30.27;21.10;;;11.30;99.90;;;;;;4846748;28;93257;-32
2023/05/07 06:09:31;;;;;;;32.50;23.77;;;11.40;99.90;;;;;;4843676;28;93152;-31
2023/05/07 06:11:57;;;;;;;35.20;21.30;;;11.40;99.90;;;;;;4844689;28;95119;-31
2023/05/07 06:14:22;;;;;;;31.35;19.73;;;11.40;99.90;;;;;;4843546;28;94467;-35
2023/05/07 06:16:48;;;;;;;34.88;24.55;;;11.40;99.90;;;;;;4845191;28;94702;-31
2023/05/07 06:19:13;;;;;;;29.60;20.75;;;11.40;99.90;;;;;;4855427;28;94451;-35
2023/05/07 06:21:40;;;;;;;34.30;22.42;;;11.50;99.90;;;;;;4860626;28;94960;-32
2023/05/07 06:24:06;;;;;;;39.05;27.55;;;11.50;99.90;;;;;;4860392;28;94715;-35
2023/05/07 06:26:31;;;;;;;36.28;25.02;;;11.50;99.90;;;;;;4849808;28;93622;-33
2023/05/07 06:28:57;;;;;;;29.13;22.10;;;11.50;99.90;;;;;;4860917;28;93074;-32
2023/05/07 06:31:22;;;;;;;27.60;19.95;;;11.50;99.90;;;;;;4860343;28;96183;-32
2023/05/07 06:33:49;;;;;;;32.13;23.27;;;11.50;99.90;;;;;;4861123;28;95203;-34
2023/05/07 06:36:15;;;;;;;34.75;22.75;;;11.50;99.90;;;;;;4860077;28;94622;-32
2023/05/07 06:38:40;;;;;;;31.45;20.90;;;11.50;99.90;;;;;;4859846;28;93495;-36
2023/05/07 06:41:07;;;;;;;27.27;20.00;;;11.60;99.90;;;;;;4859172;28;94788;-37
2023/05/07 06:43:33;;;;;;;32.97;21.23;;;11.60;99.90;;;;;;4859720;28;93326;-35
2023/05/07 06:45:58;;;;;;;31.48;22.25;;;11.70;99.90;;;;;;4848932;28;94660;-31
2023/05/07 06:48:24;;;;;;;29.80;21.23;;;11.70;99.90;;;;;;4858693;28;93431;-33
2023/05/07 06:50:50;;;;;;;34.30;21.60;;;11.70;99.90;;;;;;4858667;28;94770;-31
2023/05/07 06:53:15;;;;;;;28.60;20.50;;;11.70;99.90;;;;;;4858679;28;95460;-33
2023/05/07 06:55:44;;;;;;;35.70;23.40;;;11.70;99.90;;;;;;4857444;28;93631;-35
2023/05/07 06:58:10;;;;;;;32.50;19.70;;;11.70;99.90;;;;;;4861195;28;94319;-32
2023/05/07 07:00:35;;;;;;;28.30;21.38;;;11.70;99.90;;;;;;4848273;28;94952;-32
2023/05/07 07:03:01;;;;;;;38.03;27.17;;;11.70;99.90;;;;;;4872441;28;95434;-32
2023/05/07 07:05:26;;;;;;;31.15;21.90;;;11.70;99.90;;;;;;4860786;28;93061;-30
2023/05/07 07:07:52;;;;;;;34.00;24.15;;;11.70;99.90;;;;;;4860324;28;93215;-33
2023/05/07 07:10:21;;;;;;;36.53;25.48;;;11.70;99.90;;;;;;4859804;28;94663;-31
2023/05/07 07:12:47;;;;;;;34.80;27.02;;;11.70;99.90;;;;;;4861585;28;94637;-32
2023/05/07 07:15:13;;;;;;;37.47;24.95;;;11.70;99.90;;;;;;4860037;28;93384;-33
2023/05/07 07:17:39;;;;;;;32.05;22.25;;;11.80;99.90;;;;;;4861029;28;94759;-35
2023/05/07 07:20:05;;;;;;;28.50;21.88;;;11.80;99.90;;;;;;4859148;28;95552;-32
2023/05/07 07:22:31;;;;;;;32.35;25.38;;;11.80;99.90;;;;;;4859948;28;96501;-31
2023/05/07 07:24:56;;;;;;;32.00;23.33;;;11.80;99.90;;;;;;4860711;28;93680;-34
2023/05/07 07:27:22;;;;;;;35.00;27.23;;;11.80;99.90;;;;;;4859633;28;92576;-34
2023/05/07 07:29:47;;;;;;;37.08;24.65;;;11.80;99.90;;;;;;4860265;28;94939;-34
2023/05/07 07:32:13;;;;;;;33.63;21.88;;;11.80;99.90;;;;;;4858722;28;95164;-32
2023/05/07 07:34:39;;;;;;;38.83;25.67;;;12.00;99.90;;;;;;4860428;28;94104;-32
2023/05/07 07:37:06;;;;;;;32.13;22.77;;;12.10;99.90;;;;;;4860384;28;91750;-32
2023/05/07 07:39:35;;;;;;;32.95;22.83;;;12.20;99.90;;;;;;4851494;28;94836;-34
2023/05/07 07:42:01;;;;;;;41.45;23.90;;;12.10;99.90;;;;;;4859288;28;94479;-33
2023/05/07 07:44:27;;;;;;;29.40;21.42;;;12.20;99.90;;;;;;4860410;28;94976;-32
2023/05/07 07:46:53;;;;;;;34.55;30.08;;;12.10;99.90;;;;;;4860212;28;93944;-33
2023/05/07 07:49:19;;;;;;;30.92;20.95;;;12.20;99.90;;;;;;4859553;28;94535;-34
2023/05/07 07:51:45;;;;;;;35.17;26.17;;;12.10;99.90;;;;;;4860423;28;94562;-31
2023/05/07 07:54:10;;;;;;;36.55;23.00;;;12.20;99.90;;;;;;4859108;28;92247;-32
2023/05/07 07:56:36;;;;;;;33.03;24.95;;;12.20;99.90;;;;;;4859555;28;94378;-34
2023/05/07 07:59:08;;;;;;;33.28;25.40;;;12.20;99.90;;;;;;5026401;28;87883;-35
2023/05/07 08:01:34;;;;;;;33.60;23.10;;;12.20;99.90;;;;;;4983742;27;89120;-37
2023/05/07 08:04:00;;;;;;;45.30;25.58;;;12.20;99.90;;;;;;4975960;28;88040;-38
2023/05/07 08:06:26;;;;;;;33.35;22.85;;;12.20;99.90;;;;;;4990946;28;89809;-38
2023/05/07 08:08:52;;;;;;;34.42;21.95;;;12.20;99.90;;;;;;4987399;28;91065;-39
2023/05/07 08:11:18;;;;;;;39.25;24.17;;;12.40;99.90;;;;;;4983521;28;89379;-39
2023/05/07 08:13:44;;;;;;;31.67;20.90;;;12.40;99.90;;;;;;4988367;28;89201;-38
2023/05/07 08:16:09;;;;;;;36.00;26.60;;;12.40;99.90;;;;;;4981270;28;89357;-39
2023/05/07 08:18:35;;;;;;;40.22;24.08;;;12.50;99.90;;;;;;4993252;28;88949;-43
2023/05/07 08:21:01;;;;;;;32.58;23.75;;;12.50;99.90;;;;;;5013218;28;89227;-41
2023/05/07 08:23:27;;;;;;;40.00;27.17;;;12.60;99.90;;;;;;4985104;28;87578;-38
2023/05/07 08:25:53;;;;;;;30.70;21.55;;;12.60;99.90;;;;;;4991467;28;91045;-37
2023/05/07 08:28:19;;;;;;;36.22;22.35;;;12.70;99.90;;;;;;4994830;28;89629;-42
2023/05/07 08:30:45;;;;;;;36.97;24.73;;;12.70;99.90;;;;;;4982158;28;88106;-39
2023/05/07 08:33:10;;;;;;;30.25;21.23;;;12.70;99.90;;;;;;4995568;28;87954;-36
2023/05/07 08:35:36;;;;;;;30.60;22.17;;;12.70;99.90;;;;;;4991327;28;89865;-40
2023/05/07 08:38:02;;;;;;;23.42;19.42;;;12.80;99.90;;;;;;4984046;28;90442;-36
2023/05/07 08:40:28;;;;;;;30.08;21.30;;;12.80;99.90;;;;;;4998648;28;89140;-41
2023/05/07 08:42:54;;;;;;;31.95;21.63;;;12.90;99.90;;;;;;4991647;28;88178;-36
2023/05/07 08:45:20;;;;;;;31.83;20.35;;;12.90;99.90;;;;;;4990192;28;90551;-37
2023/05/07 08:47:58;;;;;;;34.90;22.13;;;12.90;99.90;;;;;;4974814;28;89959;-35
2023/05/07 08:50:24;;;;;;;25.97;19.57;;;13.00;99.90;;;;;;4980830;28;88459;-39
2023/05/07 08:52:49;;;;;;;32.40;21.98;;;13.00;99.90;;;;;;4992894;28;89525;-37
2023/05/07 08:55:15;;;;;;;26.08;20.10;;;13.20;99.90;;;;;;4988869;28;89811;-39
2023/05/07 08:57:41;;;;;;;28.48;21.02;;;13.30;99.90;;;;;;4991273;28;89133;-41
2023/05/07 09:00:08;;;;;;;29.23;21.33;;;13.40;99.90;;;;;;4991973;28;88357;-40
2023/05/07 09:02:36;;;;;;;30.92;19.23;;;13.60;99.90;;;;;;4991606;28;90509;-44
2023/05/07 09:05:02;;;;;;;34.25;23.67;;;13.70;99.90;;;;;;4991723;28;90150;-36
2023/05/07 09:07:27;;;;;;;30.35;22.58;;;13.80;99.90;;;;;;4991292;28;89247;-42
2023/05/07 09:09:55;;;;;;;24.73;17.33;;;13.90;99.90;;;;;;4978974;28;89047;-37
2023/05/07 09:12:21;;;;;;;20.98;15.98;;;14.00;99.90;;;;;;4979142;28;88034;-38
2023/05/07 09:14:47;;;;;;;25.77;19.58;;;14.10;99.90;;;;;;4978397;28;90860;-37
2023/05/07 09:17:13;;;;;;;29.00;20.58;;;14.10;99.90;;;;;;4977852;28;89641;-39
2023/05/07 09:19:39;;;;;;;26.98;16.50;;;14.10;99.90;;;;;;4988135;28;88301;-36
2023/05/07 09:22:07;;;;;;;24.50;18.48;;;14.50;99.90;;;;;;4959071;28;88907;-42
2023/05/07 09:24:37;;;;;;;25.88;19.73;;;14.40;99.90;;;;;;4963349;28;89272;-35
2023/05/07 09:27:04;;;;;;;30.25;18.02;;;14.50;99.90;;;;;;4966228;28;88984;-33
2023/05/07 09:29:34;;;;;;;23.58;16.25;;;14.50;99.90;;;;;;4959050;28;87778;-37
2023/05/07 09:32:01;;;;;;;26.70;19.13;;;14.70;99.90;;;;;;4958868;28;90105;-34
2023/05/07 09:34:27;;;;;;;28.58;22.33;;;15.00;99.90;;;;;;4965354;28;90120;-39
2023/05/07 09:36:53;;;;;;;24.63;21.05;;;15.00;99.90;;;;;;4977359;28;89375;-42
2023/05/07 09:39:19;;;;;;;30.45;18.40;;;15.30;99.90;;;;;;4978572;28;89019;-42
2023/05/07 09:41:46;;;;;;;25.98;18.85;;;15.60;99.90;;;;;;4978278;28;89070;-41
2023/05/07 09:44:15;;;;;;;22.17;19.20;;;15.80;99.90;;;;;;4978170;28;91031;-37
2023/05/07 09:46:46;;;;;;;25.80;20.85;;;15.80;99.90;;;;;;4977812;28;90090;-33
2023/05/07 09:49:20;;;;;;;23.17;19.80;;;15.90;99.90;;;;;;4977800;28;89680;-36
2023/05/07 09:51:50;;;;;;;21.75;16.13;;;15.90;99.90;;;;;;4975315;28;89270;-42
2023/05/07 09:54:16;;;;;;;22.63;16.67;;;15.90;99.90;;;;;;4969130;28;90359;-42
2023/05/07 09:56:44;;;;;;;22.33;18.20;;;15.80;99.90;;;;;;4966877;28;88132;-38
2023/05/07 09:59:14;;;;;;;23.90;19.23;;;16.00;99.90;;;;;;4975821;28;89502;-42
2023/05/07 10:01:41;;;;;;;25.98;20.08;;;16.00;99.90;;;;;;4975500;28;89055;-40
2023/05/07 10:04:11;;;;;;;22.45;17.10;;;16.20;99.90;;;;;;4990604;28;90071;-38
2023/05/07 10:06:37;;;;;;;24.20;18.27;;;16.20;99.90;;;;;;4979091;28;88387;-40
2023/05/07 10:09:07;;;;;;;21.90;16.42;;;16.30;99.90;;;;;;4978383;28;88726;-40
2023/05/07 10:11:34;;;;;;;21.23;16.70;;;16.30;99.90;;;;;;4989025;28;89256;-36
2023/05/07 10:14:02;;;;;;;19.23;16.63;;;16.30;99.90;;;;;;4996624;28;90586;-40
2023/05/07 10:16:36;;;;;;;22.40;17.02;;;16.30;99.90;;;;;;4985842;28;89285;-32
2023/05/07 10:19:05;;;;;;;24.55;19.02;;;16.20;99.90;;;;;;4984875;28;87888;-37
2023/05/07 10:21:36;;;;;;;20.40;17.15;;;16.00;99.90;;;;;;4987945;28;88213;-43
2023/05/07 10:24:25;;;;;;;20.45;16.48;;;15.90;99.90;;;;;;4977645;28;90111;-40
2023/05/07 10:26:52;;;;;;;21.25;16.40;;;15.90;99.90;;;;;;4979352;28;89491;-38
2023/05/07 10:29:27;;;;;;;18.98;16.75;;;15.90;99.90;;;;;;4987458;28;88849;-39
2023/05/07 10:32:02;;;;;;;24.40;17.85;;;15.90;99.90;;;;;;4979465;28;89567;-38
2023/05/07 10:34:36;;;;;;;20.35;15.85;;;15.70;99.90;;;;;;4983673;28;90478;-42
2023/05/07 10:37:02;;;;;;;23.48;18.85;;;15.70;99.90;;;;;;4976998;28;89904;-36
2023/05/07 10:39:28;;;;;;;23.45;18.15;;;15.80;99.90;;;;;;4989915;28;87732;-36
2023/05/07 10:41:54;;;;;;;29.00;24.38;;;16.10;99.90;;;;;;4990262;28;88345;-42
2023/05/07 10:44:29;;;;;;;19.33;16.70;;;16.00;99.90;;;;;;4994895;28;89757;-43
2023/05/07 10:47:24;;;;;;;23.00;16.38;;;16.10;99.90;;;;;;4990332;28;90145;-36
2023/05/07 10:49:50;;;;;;;21.60;18.25;;;16.10;99.90;;;;;;4984031;28;89835;-39
2023/05/07 10:52:21;;;;;;;26.25;20.00;;;16.00;99.90;;;;;;4981921;28;89385;-37
2023/05/07 10:54:47;;;;;;;24.98;18.40;;;16.20;99.90;;;;;;4985538;28;90202;-37
2023/05/07 10:57:31;;;;;;;24.52;18.48;;;16.40;99.90;;;;;;4992856;28;90037;-38
2023/05/07 10:59:57;;;;;;;23.90;17.27;;;16.40;99.90;;;;;;4985937;28;88496;-35
2023/05/07 11:02:23;;;;;;;23.95;18.45;;;16.70;99.90;;;;;;4982465;28;88305;-42
2023/05/07 11:05:20;;;;;;;27.67;20.77;;;16.70;99.90;;;;;;4982560;28;90136;-40
2023/05/07 11:08:06;;;;;;;24.65;20.45;;;16.70;99.90;;;;;;4974051;28;89724;-38
2023/05/07 11:10:55;;;;;;;24.05;19.58;;;16.90;99.90;;;;;;4979520;28;88867;-42
2023/05/07 11:13:41;;;;;;;24.63;19.83;;;16.70;99.90;;;;;;4983467;28;89316;-34
2023/05/07 11:16:20;;;;;;;23.38;18.60;;;16.90;99.90;;;;;;4981169;28;90227;-38
2023/05/07 11:18:50;;;;;;;24.17;19.85;;;17.00;99.90;;;;;;4980764;28;89271;-43
2023/05/07 11:21:33;;;;;;;23.58;18.63;;;17.20;99.90;;;;;;4979068;28;87607;-39
2023/05/07 11:23:59;;;;;;;27.40;19.77;;;17.00;99.90;;;;;;4977342;28;88688;-35
2023/05/07 11:26:26;;;;;;;21.63;17.95;;;17.20;99.90;;;;;;4975884;28;89877;-35
2023/05/07 11:28:53;;;;;;;27.23;18.63;;;17.00;99.90;;;;;;4977375;28;89881;-35
2023/05/07 11:31:24;;;;;;;23.23;20.67;;;17.10;99.90;;;;;;4988526;28;89187;-33
2023/05/07 11:33:50;;;;;;;27.73;19.10;;;17.10;99.90;;;;;;4992048;28;87673;-34
2023/05/07 11:36:16;;;;;;;23.83;20.50;;;17.10;99.90;;;;;;4988306;28;90494;-39
2023/05/07 11:38:42;;;;;;;20.95;18.15;;;17.30;99.90;;;;;;4991321;28;89632;-38
2023/05/07 11:41:07;;;;;;;25.17;21.75;;;17.40;99.90;;;;;;4989607;28;89655;-38
2023/05/07 11:43:35;;;;;;;20.77;18.52;;;17.50;99.90;;;;;;4991470;28;87829;-38
2023/05/07 11:46:11;;;;;;;22.60;19.98;;;17.50;99.90;;;;;;4989627;28;89204;-36
2023/05/07 11:48:38;;;;;;;22.88;20.55;;;17.60;99.90;;;;;;4990672;28;89699;-33
2023/05/07 11:51:05;;;;;;;20.65;18.48;;;17.70;99.90;;;;;;4991667;28;89371;-40
2023/05/07 11:53:38;;;;;;;22.37;19.83;;;17.60;99.90;;;;;;4989911;28;90621;-38
2023/05/07 11:56:08;;;;;;;26.23;20.67;;;17.60;99.90;;;;;;4976685;28;91278;-42
2023/05/07 11:58:33;;;;;;;22.23;19.95;;;17.60;99.90;;;;;;4985576;28;89434;-41
2023/05/07 12:00:59;;;;;;;23.02;20.33;;;17.50;99.90;;;;;;4992022;28;88694;-39
2023/05/07 12:03:25;;;;;;;22.85;18.33;;;17.60;99.90;;;;;;4986657;28;87758;-38
2023/05/07 12:05:50;;;;;;;24.00;20.83;;;17.70;99.90;;;;;;4991290;28;90433;-39
2023/05/07 12:08:17;;;;;;;24.25;19.13;;;17.50;99.90;;;;;;4983044;28;89884;-40
2023/05/07 12:10:45;;;;;;;23.95;19.88;;;17.70;99.90;;;;;;4976862;28;89536;-42
2023/05/07 12:13:22;;;;;;;19.10;16.73;;;17.80;99.90;;;;;;4976380;28;88661;-40
2023/05/07 12:15:51;;;;;;;22.65;20.20;;;17.70;99.90;;;;;;4976425;28;90460;-36
2023/05/07 12:18:17;;;;;;;20.30;18.30;;;17.80;99.90;;;;;;4981741;28;89147;-40
2023/05/07 12:20:43;;;;;;;21.73;17.73;;;17.70;99.90;;;;;;4977098;28;88462;-39
2023/05/07 12:23:10;;;;;;;22.67;18.80;;;17.70;99.90;;;;;;4988076;28;89372;-38
2023/05/07 12:25:37;;;;;;;21.98;19.67;;;17.70;99.90;;;;;;4983182;28;91136;-42
2023/05/07 12:28:04;;;;;;;22.37;20.03;;;17.70;99.90;;;;;;4988153;28;89555;-35